createdAt,value
2015-11-22T00:00:11.854Z,95.63
2015-11-22T00:00:24.198Z,95.35
2015-11-22T00:00:36.577Z,95.44
2015-11-22T00:00:48.952Z,95.44
2015-11-22T00:01:01.342Z,95.54
2015-11-22T00:01:13.686Z,95.54
2015-11-22T00:01:26.030Z,95.54
2015-11-22T00:01:38.376Z,95.35
2015-11-22T00:01:50.564Z,95.54
2015-11-22T00:02:02.892Z,95.54
2015-11-22T00:02:15.236Z,95.35
2015-11-22T00:02:27.580Z,95.35
2015-11-22T00:02:39.941Z,95.54
2015-11-22T00:02:52.300Z,95.44
2015-11-22T00:03:04.660Z,95.35
2015-11-22T00:03:17.003Z,95.54
2015-11-22T00:03:29.347Z,95.54
2015-11-22T00:03:41.678Z,95.54
2015-11-22T00:03:54.038Z,95.54
2015-11-22T00:04:06.381Z,95.63
2015-11-22T00:04:18.741Z,95.63
2015-11-22T00:04:31.116Z,95.44
2015-11-22T00:04:43.494Z,95.63
2015-11-22T00:04:55.869Z,95.54
2015-11-22T00:05:08.213Z,95.54
2015-11-22T00:05:20.541Z,95.54
2015-11-22T00:05:32.884Z,95.44
2015-11-22T00:05:45.230Z,95.54
2015-11-22T00:05:57.590Z,95.44
2015-11-22T00:06:09.777Z,95.54
2015-11-22T00:06:22.136Z,95.44
2015-11-22T00:06:34.480Z,95.44
2015-11-22T00:06:46.858Z,95.44
2015-11-22T00:06:59.233Z,95.44
2015-11-22T00:07:11.608Z,95.35
2015-11-22T00:07:23.936Z,95.35
2015-11-22T00:07:36.280Z,95.63
2015-11-22T00:07:48.627Z,95.35
2015-11-22T00:08:00.971Z,95.44
2015-11-22T00:08:13.330Z,95.44
2015-11-22T00:08:25.658Z,95.44
2015-11-22T00:08:38.017Z,95.25
2015-11-22T00:08:50.379Z,95.44
2015-11-22T00:09:02.723Z,95.63
2015-11-22T00:09:15.098Z,95.25
2015-11-22T00:09:27.473Z,95.35
2015-11-22T00:09:39.848Z,95.25
2015-11-22T00:09:52.179Z,95.35
2015-11-22T00:10:04.522Z,95.35
2015-11-22T00:10:16.866Z,95.35
2015-11-22T00:10:29.194Z,95.35
2015-11-22T00:10:41.522Z,95.25
2015-11-22T00:10:53.869Z,95.25
2015-11-22T00:11:06.213Z,95.25
2015-11-22T00:11:18.572Z,95.25
2015-11-22T00:11:30.947Z,95.25
2015-11-22T00:11:43.307Z,95.44
2015-11-22T00:11:55.653Z,95.44
2015-11-22T00:12:08.013Z,95.35
2015-11-22T00:12:20.357Z,95.35
2015-11-22T00:12:32.700Z,95.35
2015-11-22T00:12:45.044Z,95.44
2015-11-22T00:12:57.375Z,95.54
2015-11-22T00:13:09.735Z,95.54
2015-11-22T00:13:22.078Z,95.54
2015-11-22T00:13:34.438Z,95.35
2015-11-22T00:13:46.797Z,95.25
2015-11-22T00:13:59.191Z,95.25
2015-11-22T00:14:11.534Z,95.35
2015-11-22T00:14:23.878Z,95.35
2015-11-22T00:14:36.222Z,95.35
2015-11-22T00:14:48.566Z,95.25
2015-11-22T00:15:00.193Z,95.25
2015-11-22T00:15:12.536Z,95.63
2015-11-22T00:15:24.880Z,95.63
2015-11-22T00:15:37.224Z,95.25
2015-11-22T00:15:49.583Z,95.35
2015-11-22T00:16:01.976Z,95.25
2015-11-22T00:16:14.351Z,95.44
2015-11-22T00:16:26.742Z,95.54
2015-11-22T00:16:39.085Z,95.54
2015-11-22T00:16:51.413Z,95.54
2015-11-22T00:17:03.761Z,95.54
2015-11-22T00:17:16.121Z,95.63
2015-11-22T00:17:28.464Z,95.54
2015-11-22T00:17:40.808Z,95.54
2015-11-22T00:17:53.167Z,95.54
2015-11-22T00:18:05.530Z,95.54
2015-11-22T00:18:17.170Z,95.35
2015-11-22T00:18:29.530Z,95.35
2015-11-22T00:18:41.874Z,95.35
2015-11-22T00:18:54.219Z,95.44
2015-11-22T00:19:06.547Z,95.44
2015-11-22T00:19:18.891Z,95.35
2015-11-22T00:19:31.094Z,95.54
2015-11-22T00:19:42.735Z,95.54
2015-11-22T00:19:55.082Z,95.54
2015-11-22T00:20:07.441Z,95.35
2015-11-22T00:20:19.769Z,95.54
2015-11-22T00:20:32.113Z,95.44
2015-11-22T00:20:44.457Z,95.44
2015-11-22T00:20:56.099Z,95.54
2015-11-22T00:21:08.443Z,95.54
2015-11-22T00:21:20.787Z,95.54
2015-11-22T00:21:33.162Z,95.54
2015-11-22T00:21:45.537Z,95.54
2015-11-22T00:21:57.884Z,95.54
2015-11-22T00:22:10.227Z,95.54
2015-11-22T00:22:22.571Z,95.54
2015-11-22T00:22:34.915Z,95.54
2015-11-22T00:22:47.274Z,95.54
2015-11-22T00:22:59.637Z,95.44
2015-11-22T00:23:11.996Z,95.54
2015-11-22T00:23:24.371Z,95.54
2015-11-22T00:23:36.746Z,95.25
2015-11-22T00:23:49.137Z,95.35
2015-11-22T00:24:01.499Z,95.44
2015-11-22T00:24:13.843Z,95.35
2015-11-22T00:24:26.186Z,95.07
2015-11-22T00:24:38.515Z,95.63
2015-11-22T00:24:50.874Z,95.25
2015-11-22T00:25:03.204Z,95.63
2015-11-22T00:25:15.563Z,95.44
2015-11-22T00:25:27.923Z,95.35
2015-11-22T00:25:40.267Z,95.35
2015-11-22T00:25:52.657Z,95.63
2015-11-22T00:26:05.051Z,95.35
2015-11-22T00:26:17.395Z,95.44
2015-11-22T00:26:29.738Z,95.25
2015-11-22T00:26:42.082Z,95.25
2015-11-22T00:26:54.410Z,95.16
2015-11-22T00:27:06.773Z,95.35
2015-11-22T00:27:19.116Z,95.25
2015-11-22T00:27:31.476Z,95.35
2015-11-22T00:27:43.835Z,95.44
2015-11-22T00:27:56.194Z,95.44
2015-11-22T00:28:08.588Z,95.54
2015-11-22T00:28:20.947Z,95.35
2015-11-22T00:28:33.291Z,95.54
2015-11-22T00:28:45.619Z,95.54
2015-11-22T00:28:57.979Z,95.35
2015-11-22T00:29:10.309Z,95.44
2015-11-22T00:29:22.653Z,95.44
2015-11-22T00:29:34.996Z,95.44
2015-11-22T00:29:47.340Z,95.54
2015-11-22T00:29:59.684Z,95.25
2015-11-22T00:30:12.062Z,95.16
2015-11-22T00:30:24.437Z,95.25
2015-11-22T00:30:36.843Z,95.35
2015-11-22T00:30:49.234Z,95.25
2015-11-22T00:31:01.577Z,95.35
2015-11-22T00:31:13.909Z,95.35
2015-11-22T00:31:26.252Z,95.35
2015-11-22T00:31:38.596Z,95.35
2015-11-22T00:31:50.252Z,95.35
2015-11-22T00:32:02.596Z,95.35
2015-11-22T00:32:14.255Z,95.35
2015-11-22T00:32:26.630Z,95.35
2015-11-22T00:32:39.005Z,95.54
2015-11-22T00:32:51.349Z,95.35
2015-11-22T00:33:03.693Z,95.35
2015-11-22T00:33:16.039Z,95.63
2015-11-22T00:33:28.382Z,95.25
2015-11-22T00:33:40.726Z,95.25
2015-11-22T00:33:53.070Z,95.63
2015-11-22T00:34:05.445Z,95.63
2015-11-22T00:34:17.635Z,95.35
2015-11-22T00:34:30.010Z,95.25
2015-11-22T00:34:42.401Z,95.25
2015-11-22T00:34:54.745Z,95.25
2015-11-22T00:35:06.385Z,95.63
2015-11-22T00:35:18.732Z,95.35
2015-11-22T00:35:31.060Z,95.25
2015-11-22T00:35:43.404Z,95.25
2015-11-22T00:35:55.763Z,95.16
2015-11-22T00:36:08.110Z,95.25
2015-11-22T00:36:20.469Z,95.25
2015-11-22T00:36:32.110Z,95.25
2015-11-22T00:36:44.485Z,95.16
2015-11-22T00:36:56.844Z,95.35
2015-11-22T00:37:09.190Z,95.44
2015-11-22T00:37:21.534Z,95.25
2015-11-22T00:37:33.878Z,95.54
2015-11-22T00:37:46.221Z,95.54
2015-11-22T00:37:58.565Z,95.35
2015-11-22T00:38:10.895Z,95.16
2015-11-22T00:38:23.239Z,95.35
2015-11-22T00:38:35.598Z,95.54
2015-11-22T00:38:47.942Z,95.54
2015-11-22T00:39:00.333Z,95.35
2015-11-22T00:39:12.680Z,95.54
2015-11-22T00:39:25.023Z,95.35
2015-11-22T00:39:37.367Z,95.44
2015-11-22T00:39:49.695Z,95.25
2015-11-22T00:40:01.336Z,95.07
2015-11-22T00:40:13.683Z,95.35
2015-11-22T00:40:26.042Z,95.44
2015-11-22T00:40:38.417Z,95.35
2015-11-22T00:40:50.792Z,95.35
2015-11-22T00:41:03.136Z,95.63
2015-11-22T00:41:15.481Z,95.54
2015-11-22T00:41:27.825Z,95.25
2015-11-22T00:41:40.153Z,95.54
2015-11-22T00:41:52.497Z,95.44
2015-11-22T00:42:04.888Z,95.44
2015-11-22T00:42:17.234Z,95.44
2015-11-22T00:42:29.594Z,95.35
2015-11-22T00:42:41.953Z,95.35
2015-11-22T00:42:54.328Z,95.25
2015-11-22T00:43:06.656Z,95.35
2015-11-22T00:43:19.003Z,95.35
2015-11-22T00:43:31.347Z,95.16
2015-11-22T00:43:43.706Z,95.25
2015-11-22T00:43:56.050Z,95.63
2015-11-22T00:44:08.409Z,94.97
2015-11-22T00:44:20.787Z,95.44
2015-11-22T00:44:33.131Z,95.63
2015-11-22T00:44:45.475Z,95.63
2015-11-22T00:44:57.819Z,95.82
2015-11-22T00:45:10.178Z,95.82
2015-11-22T00:45:22.524Z,96.01
2015-11-22T00:45:34.883Z,95.35
2015-11-22T00:45:47.227Z,95.35
2015-11-22T00:45:59.586Z,95.35
2015-11-22T00:46:11.961Z,96.01
2015-11-22T00:46:24.339Z,95.91
2015-11-22T00:46:36.683Z,95.91
2015-11-22T00:46:49.011Z,95.73
2015-11-22T00:47:01.370Z,95.82
2015-11-22T00:47:13.714Z,95.82
2015-11-22T00:47:26.045Z,95.63
2015-11-22T00:47:38.389Z,95.63
2015-11-22T00:47:50.733Z,95.73
2015-11-22T00:48:03.108Z,95.54
2015-11-22T00:48:15.467Z,95.63
2015-11-22T00:48:27.845Z,95.63
2015-11-22T00:48:40.236Z,95.54
2015-11-22T00:48:52.611Z,95.73
2015-11-22T00:49:04.955Z,95.82
2015-11-22T00:49:17.142Z,95.82
2015-11-22T00:49:29.489Z,95.82
2015-11-22T00:49:41.833Z,95.91
2015-11-22T00:49:54.176Z,96.1
2015-11-22T00:50:06.520Z,96.1
2015-11-22T00:50:18.866Z,96.29
2015-11-22T00:50:31.241Z,96.29
2015-11-22T00:50:43.585Z,96.39
2015-11-22T00:50:55.241Z,96.2
2015-11-22T00:51:07.616Z,96.2
2015-11-22T00:51:19.994Z,96.2
2015-11-22T00:51:32.338Z,96.1
2015-11-22T00:51:44.666Z,96.1
2015-11-22T00:51:57.009Z,96.1
2015-11-22T00:52:09.353Z,95.91
2015-11-22T00:52:21.716Z,96.1
2015-11-22T00:52:34.044Z,96.1
2015-11-22T00:52:46.403Z,96.2
2015-11-22T00:52:58.762Z,96.2
2015-11-22T00:53:11.106Z,96.2
2015-11-22T00:53:23.483Z,96.29
2015-11-22T00:53:35.905Z,96.29
2015-11-22T00:53:48.264Z,95.91
2015-11-22T00:54:00.593Z,96.2
2015-11-22T00:54:12.921Z,96.2
2015-11-22T00:54:24.549Z,96.2
2015-11-22T00:54:36.877Z,96.2
2015-11-22T00:54:48.502Z,96.2
2015-11-22T00:55:00.846Z,96.39
2015-11-22T00:55:13.189Z,96.2
2015-11-22T00:55:25.552Z,96.39
2015-11-22T00:55:37.208Z,96.2
2015-11-22T00:55:49.583Z,96.48
2015-11-22T00:56:01.958Z,96.2
2015-11-22T00:56:14.333Z,96.39
2015-11-22T00:56:26.711Z,96.1
2015-11-22T00:56:39.039Z,96.39
2015-11-22T00:56:51.383Z,96.67
2015-11-22T00:57:03.727Z,96.01
2015-11-22T00:57:16.070Z,96.2
2015-11-22T00:57:28.417Z,96.1
2015-11-22T00:57:40.745Z,96.01
2015-11-22T00:57:52.948Z,96.29
2015-11-22T00:58:05.308Z,96.29
2015-11-22T00:58:17.683Z,96.29
2015-11-22T00:58:30.044Z,96.2
2015-11-22T00:58:42.403Z,96.2
2015-11-22T00:58:54.591Z,96.01
2015-11-22T00:59:06.935Z,96.1
2015-11-22T00:59:19.278Z,96.01
2015-11-22T00:59:30.906Z,96.1
2015-11-22T00:59:43.250Z,96.01
2015-11-22T00:59:55.578Z,96.1
2015-11-22T01:00:07.938Z,96.1
2015-11-22T01:00:20.281Z,96.2
2015-11-22T01:00:32.659Z,96.39
2015-11-22T01:00:45.034Z,96.39
2015-11-22T01:00:57.409Z,96.1
2015-11-22T01:01:09.769Z,96.29
2015-11-22T01:01:21.956Z,96.1
2015-11-22T01:01:34.303Z,96.2
2015-11-22T01:01:46.631Z,95.91
2015-11-22T01:01:58.975Z,96.2
2015-11-22T01:02:11.319Z,96.1
2015-11-22T01:02:23.662Z,96.2
2015-11-22T01:02:36.024Z,96.2
2015-11-22T01:02:48.383Z,96.1
2015-11-22T01:03:00.743Z,96.01
2015-11-22T01:03:13.118Z,96.29
2015-11-22T01:03:24.789Z,96.2
2015-11-22T01:03:37.167Z,96.1
2015-11-22T01:03:49.511Z,96.1
2015-11-22T01:04:01.855Z,96.1
2015-11-22T01:04:14.199Z,96.2
2015-11-22T01:04:26.542Z,96.2
2015-11-22T01:04:38.186Z,96.1
2015-11-22T01:04:50.545Z,96.1
2015-11-22T01:05:02.905Z,95.91
2015-11-22T01:05:15.280Z,96.1
2015-11-22T01:05:27.670Z,96.1
2015-11-22T01:05:40.002Z,96.01
2015-11-22T01:05:52.345Z,96.2
2015-11-22T01:06:04.689Z,96.01
2015-11-22T01:06:17.048Z,96.1
2015-11-22T01:06:28.673Z,96.1
2015-11-22T01:06:41.019Z,96.2
2015-11-22T01:06:53.379Z,96.2
2015-11-22T01:07:05.722Z,96.1
2015-11-22T01:07:18.082Z,96.29
2015-11-22T01:07:30.457Z,96.29
2015-11-22T01:07:42.835Z,96.2
2015-11-22T01:07:55.225Z,96.1
2015-11-22T01:08:07.585Z,96.39
2015-11-22T01:08:19.928Z,96.1
2015-11-22T01:08:32.538Z,96.2
2015-11-22T01:08:44.166Z,96.01
2015-11-22T01:08:55.791Z,96.2
2015-11-22T01:09:08.135Z,96.2
2015-11-22T01:09:20.494Z,96.1
2015-11-22T01:09:32.853Z,96.01
2015-11-22T01:09:45.230Z,96.29
2015-11-22T01:09:57.590Z,96.1
2015-11-22T01:10:09.980Z,96.2
2015-11-22T01:10:22.355Z,96.29
2015-11-22T01:10:34.683Z,96.01
2015-11-22T01:10:47.030Z,96.29
2015-11-22T01:10:59.374Z,96.29
2015-11-22T01:11:11.702Z,96.1
2015-11-22T01:11:24.046Z,96.29
2015-11-22T01:11:36.390Z,96.2
2015-11-22T01:11:48.736Z,96.2
2015-11-22T01:12:01.096Z,96.01
2015-11-22T01:12:12.752Z,96.01
2015-11-22T01:12:25.127Z,96.2
2015-11-22T01:12:37.502Z,96.2
2015-11-22T01:12:49.880Z,96.1
2015-11-22T01:13:02.255Z,96.1
2015-11-22T01:13:14.583Z,96.2
2015-11-22T01:13:26.927Z,96.2
2015-11-22T01:13:39.271Z,96.2
2015-11-22T01:13:51.616Z,96.2
2015-11-22T01:14:03.944Z,96.2
2015-11-22T01:14:16.304Z,96.2
2015-11-22T01:14:28.663Z,96.2
2015-11-22T01:14:41.007Z,96.29
2015-11-22T01:14:53.401Z,96.1
2015-11-22T01:15:05.776Z,96.1
2015-11-22T01:15:18.135Z,96.1
2015-11-22T01:15:30.494Z,96.1
2015-11-22T01:15:42.822Z,96.39
2015-11-22T01:15:55.169Z,96.39
2015-11-22T01:16:07.513Z,96.29
2015-11-22T01:16:19.857Z,96.1
2015-11-22T01:16:32.200Z,96.1
2015-11-22T01:16:44.529Z,96.29
2015-11-22T01:16:56.890Z,96.1
2015-11-22T01:17:09.234Z,96.1
2015-11-22T01:17:21.609Z,96.39
2015-11-22T01:17:33.968Z,96.29
2015-11-22T01:17:46.315Z,96.1
2015-11-22T01:17:58.643Z,96.1
2015-11-22T01:18:10.987Z,96.2
2015-11-22T01:18:23.330Z,96.2
2015-11-22T01:18:35.674Z,96.1
2015-11-22T01:18:48.021Z,96.2
2015-11-22T01:19:00.380Z,96.2
2015-11-22T01:19:12.755Z,96.1
2015-11-22T01:19:25.271Z,96.1
2015-11-22T01:19:37.646Z,96.1
2015-11-22T01:19:49.977Z,96.39
2015-11-22T01:20:02.321Z,96.1
2015-11-22T01:20:14.649Z,96.01
2015-11-22T01:20:26.993Z,96.1
2015-11-22T01:20:39.336Z,96.01
2015-11-22T01:20:50.964Z,96.1
2015-11-22T01:21:03.324Z,96.29
2015-11-22T01:21:15.668Z,96.29
2015-11-22T01:21:28.043Z,96.01
2015-11-22T01:21:40.418Z,96.01
2015-11-22T01:21:52.810Z,95.91
2015-11-22T01:22:05.154Z,96.1
2015-11-22T01:22:17.326Z,96.1
2015-11-22T01:22:58.001Z,96.1
2015-11-22T01:23:10.344Z,96.29
2015-11-22T01:23:22.704Z,96.1
2015-11-22T01:23:35.048Z,96.2
2015-11-22T01:23:47.423Z,96.1
2015-11-22T01:23:59.800Z,96.1
2015-11-22T01:24:12.175Z,96.29
2015-11-22T01:24:24.550Z,96.1
2015-11-22T01:24:36.893Z,96.1
2015-11-22T01:24:49.237Z,96.29
2015-11-22T01:25:01.599Z,96.1
2015-11-22T01:25:13.928Z,96.29
2015-11-22T01:25:26.271Z,96.1
2015-11-22T01:25:38.599Z,96.29
2015-11-22T01:25:50.943Z,96.29
2015-11-22T01:26:03.306Z,96.1
2015-11-22T01:26:15.665Z,96.1
2015-11-22T01:26:28.040Z,96.1
2015-11-22T01:26:40.399Z,96.01
2015-11-22T01:26:52.743Z,96.1
2015-11-22T01:27:05.090Z,96.29
2015-11-22T01:27:17.434Z,96.29
2015-11-22T01:27:29.777Z,96.2
2015-11-22T01:27:42.121Z,96.2
2015-11-22T01:27:54.449Z,96.2
2015-11-22T01:28:06.796Z,96.2
2015-11-22T01:28:19.140Z,96.2
2015-11-22T01:28:31.483Z,96.01
2015-11-22T01:28:43.843Z,96.29
2015-11-22T01:28:56.187Z,96.2
2015-11-22T01:29:07.845Z,96.2
2015-11-22T01:29:20.251Z,96.29
2015-11-22T01:29:32.595Z,96.01
2015-11-22T01:29:44.923Z,96.1
2015-11-22T01:29:57.267Z,96.1
2015-11-22T01:30:09.613Z,96.2
2015-11-22T01:30:21.957Z,96.1
2015-11-22T01:30:34.301Z,96.01
2015-11-22T01:30:46.645Z,96.1
2015-11-22T01:30:59.004Z,95.91
2015-11-22T01:31:11.351Z,96.1
2015-11-22T01:31:23.726Z,96.01
2015-11-22T01:31:36.070Z,96.1
2015-11-22T01:31:48.413Z,96.1
2015-11-22T01:32:00.741Z,96.1
2015-11-22T01:32:13.087Z,96.01
2015-11-22T01:32:25.431Z,96.29
2015-11-22T01:32:37.775Z,96.01
2015-11-22T01:32:50.118Z,96.01
2015-11-22T01:33:02.462Z,96.01
2015-11-22T01:33:14.809Z,96.01
2015-11-22T01:33:27.184Z,96.1
2015-11-22T01:33:39.559Z,96.01
2015-11-22T01:33:51.903Z,96.29
2015-11-22T01:34:04.246Z,95.91
2015-11-22T01:34:16.593Z,96.1
2015-11-22T01:34:28.937Z,96.1
2015-11-22T01:34:41.281Z,96.29
2015-11-22T01:34:53.624Z,96.29
2015-11-22T01:35:05.971Z,96.29
2015-11-22T01:35:18.331Z,96.29
2015-11-22T01:35:30.674Z,96.29
2015-11-22T01:35:43.034Z,96.2
2015-11-22T01:35:55.377Z,96.29
2015-11-22T01:36:07.724Z,96.2
2015-11-22T01:36:20.052Z,96.2
2015-11-22T01:36:32.396Z,96.39
2015-11-22T01:36:44.740Z,96.2
2015-11-22T01:36:57.084Z,96.39
2015-11-22T01:37:09.445Z,96.29
2015-11-22T01:37:21.820Z,96.29
2015-11-22T01:37:34.211Z,96.2
2015-11-22T01:37:46.570Z,96.29
2015-11-22T01:37:58.961Z,96.2
2015-11-22T01:38:10.604Z,96.2
2015-11-22T01:38:22.932Z,96.39
2015-11-22T01:38:35.276Z,96.39
2015-11-22T01:38:47.620Z,96.2
2015-11-22T01:38:59.964Z,96.2
2015-11-22T01:39:12.310Z,96.39
2015-11-22T01:39:24.654Z,96.29
2015-11-22T01:39:37.013Z,96.39
2015-11-22T01:39:49.373Z,96.48
2015-11-22T01:40:01.732Z,96.39
2015-11-22T01:40:14.078Z,96.39
2015-11-22T01:40:26.422Z,96.29
2015-11-22T01:40:38.765Z,96.2
2015-11-22T01:40:51.109Z,96.48
2015-11-22T01:41:03.469Z,96.29
2015-11-22T01:41:15.831Z,96.29
2015-11-22T01:41:28.206Z,96.29
2015-11-22T01:41:40.581Z,96.1
2015-11-22T01:41:52.956Z,96.1
2015-11-22T01:42:05.315Z,96.1
2015-11-22T01:42:17.662Z,96.2
2015-11-22T01:42:30.021Z,96.1
2015-11-22T01:42:42.350Z,95.91
2015-11-22T01:42:54.693Z,96.29
2015-11-22T01:43:07.053Z,96.2
2015-11-22T01:43:19.415Z,96.2
2015-11-22T01:43:31.790Z,96.29
2015-11-22T01:43:44.149Z,96.2
2015-11-22T01:43:56.493Z,96.1
2015-11-22T01:44:08.821Z,96.2
2015-11-22T01:44:21.167Z,96.1
2015-11-22T01:44:33.511Z,96.29
2015-11-22T01:44:45.855Z,96.29
2015-11-22T01:44:58.214Z,96.1
2015-11-22T01:45:10.558Z,96.1
2015-11-22T01:45:22.904Z,96.29
2015-11-22T01:45:35.248Z,96.01
2015-11-22T01:45:47.639Z,96.29
2015-11-22T01:45:59.998Z,96.01
2015-11-22T01:46:12.373Z,96.2
2015-11-22T01:46:24.720Z,96.29
2015-11-22T01:46:37.064Z,96.01
2015-11-22T01:46:49.407Z,96.2
2015-11-22T01:47:01.751Z,96.39
2015-11-22T01:47:14.095Z,96.29
2015-11-22T01:47:26.457Z,96.29
2015-11-22T01:47:38.785Z,96.2
2015-11-22T01:47:51.145Z,96.2
2015-11-22T01:48:03.489Z,96.29
2015-11-22T01:48:15.709Z,96.1
2015-11-22T01:48:28.084Z,96.39
2015-11-22T01:48:40.459Z,96.1
2015-11-22T01:48:52.834Z,96.2
2015-11-22T01:49:05.178Z,96.29
2015-11-22T01:49:17.540Z,96.01
2015-11-22T01:49:29.869Z,96.29
2015-11-22T01:49:42.212Z,96.1
2015-11-22T01:49:54.556Z,96.1
2015-11-22T01:50:06.900Z,96.2
2015-11-22T01:50:19.261Z,95.91
2015-11-22T01:50:31.605Z,96.2
2015-11-22T01:50:43.980Z,96.01
2015-11-22T01:50:56.355Z,96.1
2015-11-22T01:51:08.730Z,96.01
2015-11-22T01:51:21.078Z,96.2
2015-11-22T01:51:33.421Z,96.2
2015-11-22T01:51:45.765Z,96.29
2015-11-22T01:51:58.109Z,96.1
2015-11-22T01:52:10.453Z,96.2
2015-11-22T01:52:22.798Z,96.29
2015-11-22T01:52:35.142Z,96.29
2015-11-22T01:52:47.502Z,96.29
2015-11-22T01:52:59.861Z,96.1
2015-11-22T01:53:12.236Z,96.01
2015-11-22T01:53:24.630Z,96.39
2015-11-22T01:53:37.020Z,96.2
2015-11-22T01:53:49.348Z,96.29
2015-11-22T01:54:01.692Z,96.29
2015-11-22T01:54:14.036Z,96.29
2015-11-22T01:54:26.382Z,96.39
2015-11-22T01:54:38.725Z,96.1
2015-11-22T01:54:51.053Z,96.29
2015-11-22T01:55:03.397Z,96.1
2015-11-22T01:55:15.757Z,96.01
2015-11-22T01:55:28.119Z,96.1
2015-11-22T01:55:40.478Z,96.29
2015-11-22T01:55:52.853Z,96.29
2015-11-22T01:56:05.181Z,96.1
2015-11-22T01:56:17.541Z,96.01
2015-11-22T01:56:29.888Z,96.1
2015-11-22T01:56:42.231Z,96.1
2015-11-22T01:56:54.575Z,96.39
2015-11-22T01:57:06.231Z,96.1
2015-11-22T01:57:18.591Z,96.1
2015-11-22T01:57:30.969Z,96.1
2015-11-22T01:57:43.344Z,96.29
2015-11-22T01:57:55.016Z,96.1
2015-11-22T01:58:07.359Z,96.1
2015-11-22T01:58:19.687Z,96.1
2015-11-22T01:58:32.050Z,96.48
2015-11-22T01:58:44.409Z,96.29
2015-11-22T01:58:56.737Z,96.39
2015-11-22T01:59:09.081Z,96.1
2015-11-22T01:59:21.425Z,96.39
2015-11-22T01:59:33.786Z,96.39
2015-11-22T01:59:46.130Z,96.2
2015-11-22T01:59:58.505Z,96.39
2015-11-22T02:00:10.896Z,96.39
2015-11-22T02:00:23.224Z,96.39
2015-11-22T02:00:35.570Z,96.1
2015-11-22T02:00:47.195Z,96.2
2015-11-22T02:00:58.820Z,96.1
2015-11-22T02:01:11.164Z,96.2
2015-11-22T02:01:23.508Z,96.48
2015-11-22T02:01:35.839Z,96.39
2015-11-22T02:01:47.464Z,96.39
2015-11-22T02:01:59.823Z,96.2
2015-11-22T02:02:12.198Z,96.39
2015-11-22T02:02:24.558Z,96.29
2015-11-22T02:02:36.919Z,96.1
2015-11-22T02:02:49.247Z,96.2
2015-11-22T02:03:01.591Z,96.39
2015-11-22T02:03:13.935Z,96.2
2015-11-22T02:03:26.294Z,96.2
2015-11-22T02:03:38.657Z,96.29
2015-11-22T02:03:51.000Z,96.2
2015-11-22T02:04:03.360Z,96.2
2015-11-22T02:04:15.703Z,96.2
2015-11-22T02:04:28.063Z,96.48
2015-11-22T02:04:40.441Z,96.2
2015-11-22T02:04:52.816Z,96.1
2015-11-22T02:05:05.160Z,96.39
2015-11-22T02:05:17.503Z,96.29
2015-11-22T02:05:29.847Z,96.1
2015-11-22T02:05:42.209Z,96.2
2015-11-22T02:05:54.538Z,96.2
2015-11-22T02:06:06.881Z,96.29
2015-11-22T02:06:19.225Z,96.1
2015-11-22T02:06:31.569Z,96.39
2015-11-22T02:06:43.946Z,96.2
2015-11-22T02:06:56.305Z,96.29
2015-11-22T02:07:08.696Z,96.29
2015-11-22T02:07:21.071Z,96.2
2015-11-22T02:07:32.696Z,96.2
2015-11-22T02:07:45.043Z,96.29
2015-11-22T02:07:57.386Z,96.2
2015-11-22T02:08:09.714Z,96.2
2015-11-22T02:08:22.058Z,96.39
2015-11-22T02:08:34.402Z,96.29
2015-11-22T02:08:46.749Z,96.29
2015-11-22T02:08:59.108Z,96.2
2015-11-22T02:09:11.452Z,96.29
2015-11-22T02:09:23.827Z,96.2
2015-11-22T02:09:36.186Z,96.48
2015-11-22T02:09:48.532Z,96.2
2015-11-22T02:10:00.876Z,96.2
2015-11-22T02:10:12.501Z,96.29
2015-11-22T02:10:24.844Z,96.2
2015-11-22T02:10:37.204Z,96.2
2015-11-22T02:10:49.551Z,96.2
2015-11-22T02:11:01.879Z,96.2
2015-11-22T02:11:14.238Z,96.29
2015-11-22T02:11:26.582Z,96.2
2015-11-22T02:11:38.957Z,96.29
2015-11-22T02:11:51.460Z,96.2
2015-11-22T02:12:03.835Z,96.39
2015-11-22T02:12:16.194Z,96.2
2015-11-22T02:12:28.538Z,96.29
2015-11-22T02:12:40.885Z,96.76
2015-11-22T02:12:53.228Z,96.2
2015-11-22T02:13:05.557Z,96.2
2015-11-22T02:13:17.932Z,96.29
2015-11-22T02:13:30.275Z,96.29
2015-11-22T02:13:42.627Z,96.29
2015-11-22T02:13:54.986Z,96.29
2015-11-22T02:14:07.345Z,96.2
2015-11-22T02:14:19.720Z,96.29
2015-11-22T02:14:32.049Z,96.39
2015-11-22T02:14:44.382Z,96.39
2015-11-22T02:14:56.742Z,96.2
2015-11-22T02:15:09.085Z,96.39
2015-11-22T02:15:21.445Z,96.39
2015-11-22T02:15:33.789Z,96.1
2015-11-22T02:15:46.122Z,96.1
2015-11-22T02:15:58.466Z,96.29
2015-11-22T02:16:10.825Z,96.29
2015-11-22T02:16:23.200Z,96.1
2015-11-22T02:16:35.544Z,96.2
2015-11-22T02:16:47.722Z,96.01
2015-11-22T02:17:00.065Z,96.2
2015-11-22T02:17:12.409Z,96.1
2015-11-22T02:17:24.769Z,96.2
2015-11-22T02:17:37.112Z,96.1
2015-11-22T02:17:49.476Z,96.1
2015-11-22T02:18:01.836Z,96.2
2015-11-22T02:18:14.086Z,96.01
2015-11-22T02:18:26.445Z,96.2
2015-11-22T02:18:38.773Z,96.2
2015-11-22T02:18:50.412Z,96.1
2015-11-22T02:19:02.756Z,96.1
2015-11-22T02:19:14.943Z,96.01
2015-11-22T02:19:27.302Z,96.1
2015-11-22T02:19:39.646Z,96.1
2015-11-22T02:19:51.988Z,96.01
2015-11-22T02:20:04.347Z,96.1
2015-11-22T02:20:16.707Z,96.1
2015-11-22T02:20:29.066Z,96.01
2015-11-22T02:20:41.441Z,96.2
2015-11-22T02:20:53.783Z,96.01
2015-11-22T02:21:05.970Z,96.1
2015-11-22T02:21:18.314Z,96.1
2015-11-22T02:21:30.658Z,96.2
2015-11-22T02:21:43.002Z,96.2
2015-11-22T02:21:54.624Z,96.2
2015-11-22T02:22:06.967Z,96.29
2015-11-22T02:22:18.608Z,96.1
2015-11-22T02:22:30.967Z,96.1
2015-11-22T02:22:43.327Z,96.2
2015-11-22T02:22:55.685Z,96.29
2015-11-22T02:23:08.029Z,96.39
2015-11-22T02:23:20.357Z,96.39
2015-11-22T02:23:32.716Z,96.39
2015-11-22T02:23:45.060Z,96.2
2015-11-22T02:23:57.389Z,96.29
2015-11-22T02:24:09.733Z,96.1
2015-11-22T02:24:22.108Z,96.39
2015-11-22T02:24:34.452Z,96.1
2015-11-22T02:24:46.811Z,96.39
2015-11-22T02:24:59.187Z,96.2
2015-11-22T02:25:11.406Z,96.2
2015-11-22T02:25:23.781Z,96.29
2015-11-22T02:25:36.125Z,96.86
2015-11-22T02:25:48.468Z,96.48
2015-11-22T02:26:00.813Z,96.2
2015-11-22T02:26:12.438Z,96.39
2015-11-22T02:26:24.782Z,96.2
2015-11-22T02:26:36.969Z,96.86
2015-11-22T02:26:48.610Z,96.39
2015-11-22T02:27:00.971Z,96.2
2015-11-22T02:27:13.331Z,96.2
2015-11-22T02:27:25.690Z,96.39
2015-11-22T02:27:38.049Z,96.39
2015-11-22T02:27:50.393Z,96.29
2015-11-22T02:28:02.738Z,96.2
2015-11-22T02:28:14.363Z,96.86
2015-11-22T02:28:26.722Z,96.86
2015-11-22T02:28:39.066Z,96.76
2015-11-22T02:28:51.425Z,96.39
2015-11-22T02:29:03.787Z,96.95
2015-11-22T02:29:16.177Z,96.2
2015-11-22T02:29:28.537Z,96.76
2015-11-22T02:29:40.881Z,96.29
2015-11-22T02:29:53.226Z,96.76
2015-11-22T02:30:05.554Z,96.29
2015-11-22T02:30:17.898Z,96.86
2015-11-22T02:30:30.242Z,96.86
2015-11-22T02:30:42.586Z,96.95
2015-11-22T02:30:54.947Z,96.2
2015-11-22T02:31:07.322Z,96.67
2015-11-22T02:31:19.697Z,96.86
2015-11-22T02:31:32.072Z,96.86
2015-11-22T02:31:44.447Z,96.95
2015-11-22T02:31:56.840Z,96.86
2015-11-22T02:32:09.183Z,96.76
2015-11-22T02:32:21.527Z,96.95
2015-11-22T02:32:33.871Z,96.86
2015-11-22T02:32:46.230Z,96.86
2015-11-22T02:32:58.562Z,96.39
2015-11-22T02:33:10.922Z,96.39
2015-11-22T02:33:23.266Z,96.29
2015-11-22T02:33:35.641Z,96.39
2015-11-22T02:33:48.000Z,96.86
2015-11-22T02:34:00.376Z,96.67
2015-11-22T02:34:12.595Z,96.86
2015-11-22T02:34:24.954Z,96.86
2015-11-22T02:34:37.329Z,96.76
2015-11-22T02:34:49.673Z,96.86
2015-11-22T02:35:02.020Z,96.67
2015-11-22T02:35:14.348Z,96.39
2015-11-22T02:35:26.691Z,96.39
2015-11-22T02:35:39.035Z,96.48
2015-11-22T02:35:51.379Z,96.48
2015-11-22T02:36:03.584Z,96.86
2015-11-22T02:36:15.943Z,96.48
2015-11-22T02:36:27.443Z,96.48
2015-11-22T02:36:39.803Z,96.48
2015-11-22T02:36:52.147Z,96.76
2015-11-22T02:37:04.509Z,96.76
2015-11-22T02:37:16.853Z,96.48
2015-11-22T02:37:28.462Z,96.48
2015-11-22T02:37:40.806Z,96.76
2015-11-22T02:37:53.150Z,96.48
2015-11-22T02:38:05.510Z,96.57
2015-11-22T02:38:17.151Z,96.48
2015-11-22T02:38:29.510Z,96.57
2015-11-22T02:38:41.885Z,96.48
2015-11-22T02:38:54.260Z,96.48
2015-11-22T02:39:05.935Z,96.48
2015-11-22T02:39:18.310Z,96.57
2015-11-22T02:39:30.654Z,96.57
2015-11-22T02:39:42.997Z,96.48
2015-11-22T02:39:55.341Z,96.57
2015-11-22T02:40:07.688Z,96.67
2015-11-22T02:40:20.032Z,96.57
2015-11-22T02:40:32.375Z,96.67
2015-11-22T02:40:44.735Z,96.57
2015-11-22T02:40:57.078Z,96.57